createdAt,value
2018-02-22T00:01:57.497Z,11.00
2018-02-22T00:04:25.347Z,11.40
2018-02-22T00:06:53.028Z,11.77
2018-02-22T00:09:20.703Z,10.40
2018-02-22T00:11:48.404Z,11.07
2018-02-22T00:14:16.091Z,10.38
2018-02-22T00:16:43.787Z,10.93
2018-02-22T00:19:11.460Z,9.85
2018-02-22T00:21:39.416Z,11.38
2018-02-22T00:24:07.084Z,11.52
2018-02-22T00:26:34.777Z,9.85
2018-02-22T00:29:02.500Z,10.80
2018-02-22T00:31:30.170Z,11.20
2018-02-22T00:33:57.878Z,10.93
2018-02-22T00:36:25.556Z,11.43
2018-02-22T00:38:53.235Z,11.55
2018-02-22T00:41:20.932Z,10.55
2018-02-22T00:43:48.608Z,8.90
2018-02-22T00:46:16.322Z,11.38
2018-02-22T00:48:43.996Z,11.10
2018-02-22T00:51:11.672Z,10.27
2018-02-22T00:53:39.453Z,12.90
2018-02-22T00:56:07.124Z,10.50
2018-02-22T00:58:34.824Z,11.45
2018-02-22T01:01:02.500Z,12.13
2018-02-22T01:03:30.409Z,11.63
2018-02-22T01:05:58.096Z,10.57
2018-02-22T01:08:25.768Z,10.48
2018-02-22T01:10:53.464Z,11.50
2018-02-22T01:13:21.123Z,9.80
2018-02-22T01:15:48.834Z,11.80
2018-02-22T01:18:16.513Z,10.32
2018-02-22T01:20:44.243Z,10.65
2018-02-22T01:23:11.942Z,11.27
2018-02-22T01:25:39.622Z,10.55
2018-02-22T01:28:07.317Z,11.55
2018-02-22T01:30:34.994Z,11.57
2018-02-22T01:33:02.691Z,11.45
2018-02-22T01:35:30.386Z,12.50
2018-02-22T01:37:58.100Z,10.57
2018-02-22T01:40:25.763Z,12.20
2018-02-22T01:42:53.435Z,11.38
2018-02-22T01:45:21.118Z,11.95
2018-02-22T01:47:48.785Z,10.73
2018-02-22T01:50:16.491Z,12.57
2018-02-22T01:52:44.178Z,10.80
2018-02-22T01:55:12.226Z,13.35
2018-02-22T01:57:39.908Z,12.30
2018-02-22T02:00:07.582Z,11.88
2018-02-22T02:02:35.280Z,11.07
2018-02-22T02:05:02.973Z,11.23
2018-02-22T02:07:30.674Z,11.20
2018-02-22T02:09:58.351Z,12.45
2018-02-22T02:12:26.067Z,12.15
2018-02-22T02:14:53.815Z,12.75
2018-02-22T02:17:21.510Z,11.70
2018-02-22T02:19:49.210Z,11.38
2018-02-22T02:22:16.904Z,11.85
2018-02-22T02:24:44.609Z,12.65
2018-02-22T02:27:12.280Z,11.73
2018-02-22T02:29:40.230Z,12.30
2018-02-22T02:32:07.925Z,12.88
2018-02-22T02:34:35.605Z,11.52
2018-02-22T02:37:03.296Z,10.98
2018-02-22T02:39:30.986Z,11.52
2018-02-22T02:41:58.697Z,12.80
2018-02-22T02:44:26.473Z,13.40
2018-02-22T02:46:54.360Z,10.65
2018-02-22T02:49:22.044Z,12.10
2018-02-22T02:51:49.728Z,13.30
2018-02-22T02:54:17.453Z,13.00
2018-02-22T02:56:45.132Z,11.70
2018-02-22T02:59:12.828Z,12.75
2018-02-22T03:01:40.517Z,12.13
2018-02-22T03:04:08.314Z,12.65
2018-02-22T03:06:35.996Z,12.02
2018-02-22T03:09:04.111Z,11.88
2018-02-22T03:11:31.800Z,11.90
2018-02-22T03:13:59.474Z,13.30
2018-02-22T03:16:27.203Z,13.35
2018-02-22T03:18:54.881Z,12.63
2018-02-22T03:21:22.599Z,13.68
2018-02-22T03:23:50.300Z,11.90
2018-02-22T03:26:18.052Z,12.85
2018-02-22T03:28:45.727Z,13.45
2018-02-22T03:31:13.415Z,14.70
2018-02-22T03:33:41.117Z,13.10
2018-02-22T03:36:08.792Z,13.10
2018-02-22T03:38:36.499Z,13.43
2018-02-22T03:41:04.209Z,13.05
2018-02-22T03:43:31.929Z,13.10
2018-02-22T03:45:59.659Z,13.25
2018-02-22T03:48:27.326Z,11.63
2018-02-22T03:50:55.040Z,12.52
2018-02-22T03:53:22.720Z,12.52
2018-02-22T03:55:50.427Z,13.50
2018-02-22T03:58:18.103Z,12.75
2018-02-22T04:00:45.978Z,11.98
2018-02-22T04:03:13.657Z,13.40
2018-02-22T04:05:41.359Z,13.88
2018-02-22T04:08:09.048Z,14.52
2018-02-22T04:10:36.719Z,14.52
2018-02-22T04:13:04.441Z,14.50
2018-02-22T04:15:32.120Z,14.35
2018-02-22T04:18:00.061Z,13.93
2018-02-22T04:20:27.771Z,13.70
2018-02-22T04:22:55.458Z,13.65
2018-02-22T04:25:23.175Z,13.93
2018-02-22T04:27:50.875Z,14.07
2018-02-22T04:30:18.596Z,14.50
2018-02-22T04:32:46.277Z,13.68
2018-02-22T04:35:14.296Z,15.02
2018-02-22T04:37:41.977Z,14.85
2018-02-22T04:40:09.657Z,14.38
2018-02-22T04:42:37.360Z,13.52
2018-02-22T04:45:05.049Z,13.32
2018-02-22T04:47:32.755Z,14.15
2018-02-22T04:50:00.485Z,15.93
2018-02-22T04:52:28.523Z,13.95
2018-02-22T04:54:56.212Z,14.57
2018-02-22T04:57:23.896Z,13.93
2018-02-22T04:59:51.611Z,14.70
2018-02-22T05:02:19.306Z,14.77
2018-02-22T05:04:47.125Z,14.13
2018-02-22T05:07:14.832Z,14.40
2018-02-22T05:09:42.590Z,13.27
2018-02-22T05:12:10.288Z,13.80
2018-02-22T05:14:37.966Z,13.48
2018-02-22T05:17:05.684Z,14.25
2018-02-22T05:19:33.388Z,14.07
2018-02-22T05:22:01.079Z,13.95
2018-02-22T05:24:28.759Z,12.48
2018-02-22T05:26:56.710Z,15.68
2018-02-22T05:29:24.704Z,15.88
2018-02-22T05:31:52.400Z,14.63
2018-02-22T05:34:20.107Z,14.43
2018-02-22T05:36:47.803Z,13.10
2018-02-22T05:39:15.551Z,13.90
2018-02-22T05:41:43.256Z,14.10
2018-02-22T05:44:10.937Z,13.57
2018-02-22T05:46:38.654Z,14.40
2018-02-22T05:49:06.350Z,15.13
2018-02-22T05:51:34.256Z,13.05
2018-02-22T05:54:01.978Z,13.02
2018-02-22T05:56:29.694Z,15.05
2018-02-22T05:58:57.392Z,13.88
2018-02-22T06:01:25.068Z,14.45
2018-02-22T06:03:52.761Z,13.32
2018-02-22T06:06:20.539Z,14.82
2018-02-22T06:08:48.406Z,15.05
2018-02-22T06:11:16.078Z,13.60
2018-02-22T06:13:44.400Z,13.18
2018-02-22T06:16:12.182Z,14.98
2018-02-22T06:18:39.863Z,14.32
2018-02-22T06:21:07.573Z,14.98
2018-02-22T06:23:35.306Z,15.85
2018-02-22T06:26:03.300Z,14.13
2018-02-22T06:28:30.996Z,13.25
2018-02-22T06:30:58.672Z,14.25
2018-02-22T06:33:26.384Z,16.48
2018-02-22T06:35:54.069Z,14.75
2018-02-22T06:38:21.761Z,18.23
2018-02-22T06:40:49.435Z,15.73
2018-02-22T06:43:17.173Z,15.32
2018-02-22T06:45:44.849Z,15.38
2018-02-22T06:48:12.549Z,13.95
2018-02-22T06:50:40.324Z,16.52
2018-02-22T06:53:07.997Z,15.20
2018-02-22T06:55:35.703Z,14.60
2018-02-22T06:58:03.389Z,13.48
2018-02-22T07:00:31.129Z,16.02
2018-02-22T07:02:58.826Z,14.13
2018-02-22T07:05:26.520Z,15.38
2018-02-22T07:07:54.219Z,14.77
2018-02-22T07:10:21.899Z,16.25
2018-02-22T07:12:49.600Z,16.20
2018-02-22T07:15:17.284Z,15.55
2018-02-22T07:17:45.014Z,13.40
2018-02-22T07:20:12.725Z,16.27
2018-02-22T07:22:40.399Z,13.52
2018-02-22T07:25:08.100Z,16.37
2018-02-22T07:27:35.792Z,14.55
2018-02-22T07:30:03.492Z,15.63
2018-02-22T07:32:31.182Z,14.48
2018-02-22T07:34:59.148Z,14.25
2018-02-22T07:37:26.850Z,14.50
2018-02-22T07:39:54.534Z,13.75
2018-02-22T07:42:22.234Z,15.85
2018-02-22T07:44:49.923Z,13.95
2018-02-22T07:47:17.625Z,14.55
2018-02-22T07:49:45.313Z,14.50
2018-02-22T07:52:13.192Z,15.68
2018-02-22T07:54:40.862Z,15.90
2018-02-22T07:57:08.736Z,14.68
2018-02-22T07:59:36.436Z,15.50
2018-02-22T08:02:04.112Z,15.13
2018-02-22T08:04:31.820Z,14.07
2018-02-22T08:06:59.535Z,14.40
2018-02-22T08:09:27.440Z,12.70
2018-02-22T08:11:55.117Z,13.98
2018-02-22T08:14:22.793Z,12.57
2018-02-22T08:16:50.496Z,14.43
2018-02-22T08:19:18.168Z,12.75
2018-02-22T08:21:45.860Z,11.60
2018-02-22T08:24:13.541Z,13.02
2018-02-22T08:26:41.472Z,12.27
2018-02-22T08:29:09.140Z,12.25
2018-02-22T08:31:36.820Z,12.13
2018-02-22T08:34:04.525Z,13.68
2018-02-22T08:36:32.243Z,11.77
2018-02-22T08:38:59.940Z,10.98
2018-02-22T08:41:27.675Z,13.35
2018-02-22T08:43:55.406Z,11.57
2018-02-22T08:46:23.080Z,12.07
2018-02-22T08:48:50.748Z,13.43
2018-02-22T08:51:18.435Z,11.90
2018-02-22T08:53:46.138Z,10.35
2018-02-22T08:56:13.843Z,10.70
2018-02-22T08:58:41.517Z,11.23
2018-02-22T09:01:09.258Z,11.27
2018-02-22T09:03:36.940Z,11.27
2018-02-22T09:06:04.621Z,11.55
2018-02-22T09:08:32.369Z,9.82
2018-02-22T09:11:00.055Z,10.65
2018-02-22T09:13:27.969Z,11.40
2018-02-22T09:15:55.653Z,11.77
2018-02-22T09:18:23.616Z,10.23
2018-02-22T09:20:51.290Z,9.27
2018-02-22T09:23:18.970Z,10.60
2018-02-22T09:25:46.701Z,9.23
2018-02-22T09:28:14.480Z,9.55
2018-02-22T09:30:42.174Z,10.57
2018-02-22T09:33:09.849Z,9.70
2018-02-22T09:35:37.675Z,10.85
2018-02-22T09:38:05.345Z,11.95
2018-02-22T09:40:33.046Z,10.40
2018-02-22T09:43:00.745Z,9.38
2018-02-22T09:45:28.437Z,9.35
2018-02-22T09:47:56.328Z,8.95
2018-02-22T09:50:24.006Z,10.35
2018-02-22T09:52:51.699Z,8.55
2018-02-22T09:55:19.407Z,8.27
2018-02-22T09:57:47.081Z,9.50
2018-02-22T10:00:15.027Z,9.10
2018-02-22T10:02:42.778Z,9.02
2018-02-22T10:05:10.553Z,10.02
2018-02-22T10:07:38.245Z,9.10
2018-02-22T10:10:05.929Z,10.07
2018-02-22T10:12:33.630Z,10.05
2018-02-22T10:15:01.674Z,7.35
2018-02-22T10:17:29.664Z,9.13
2018-02-22T10:19:57.359Z,9.75
2018-02-22T10:22:25.042Z,8.02
2018-02-22T10:24:52.735Z,7.87
2018-02-22T10:27:20.423Z,8.93
2018-02-22T10:29:48.131Z,9.70
2018-02-22T10:32:15.821Z,8.90
2018-02-22T10:34:43.707Z,10.40
2018-02-22T10:37:11.550Z,9.88
2018-02-22T10:39:39.239Z,9.30
2018-02-22T10:42:06.930Z,8.27
2018-02-22T10:44:34.605Z,8.18
2018-02-22T10:47:02.292Z,9.73
2018-02-22T10:49:29.960Z,9.55
2018-02-22T10:51:57.860Z,8.18
2018-02-22T10:54:25.548Z,10.45
2018-02-22T10:56:53.262Z,8.35
2018-02-22T10:59:21.194Z,9.02
2018-02-22T11:01:54.447Z,8.35
2018-02-22T11:04:22.148Z,9.00
2018-02-22T11:06:49.812Z,8.38
2018-02-22T11:09:17.545Z,8.15
2018-02-22T11:11:45.223Z,7.93
2018-02-22T11:14:12.943Z,10.63
2018-02-22T11:16:40.683Z,8.48
2018-02-22T11:19:08.348Z,8.02
2018-02-22T11:21:36.069Z,8.00
2018-02-22T11:24:03.744Z,8.38
2018-02-22T11:26:31.430Z,8.13
2018-02-22T11:28:59.149Z,10.10
2018-02-22T11:31:26.862Z,7.60
2018-02-22T11:33:54.532Z,7.65
2018-02-22T11:36:22.202Z,7.93
2018-02-22T11:38:49.909Z,8.13
2018-02-22T11:41:17.570Z,8.30
2018-02-22T11:43:45.277Z,8.77
2018-02-22T11:46:12.949Z,6.85
2018-02-22T11:48:40.667Z,8.25
2018-02-22T11:51:08.340Z,7.97
2018-02-22T11:53:36.023Z,7.40
2018-02-22T11:56:03.818Z,6.70
2018-02-22T11:58:31.500Z,7.07
2018-02-22T12:00:59.202Z,7.82
2018-02-22T12:03:26.877Z,6.45
2018-02-22T12:05:54.585Z,6.82
2018-02-22T12:08:22.283Z,7.57
2018-02-22T12:10:49.973Z,7.80
2018-02-22T12:13:17.684Z,6.95
2018-02-22T12:15:45.555Z,7.70
2018-02-22T12:18:13.270Z,7.07
2018-02-22T12:20:40.952Z,7.85
2018-02-22T12:23:08.671Z,7.60
2018-02-22T12:25:36.376Z,7.65
2018-02-22T12:28:04.047Z,8.38
2018-02-22T12:30:31.777Z,7.55
2018-02-22T12:32:59.484Z,8.07
2018-02-22T12:35:27.269Z,7.62
2018-02-22T12:37:54.956Z,6.47
2018-02-22T12:40:22.990Z,6.30
2018-02-22T12:42:52.081Z,7.30
2018-02-22T12:45:19.759Z,7.68
2018-02-22T12:47:47.481Z,6.53
2018-02-22T12:50:15.155Z,6.72
2018-02-22T12:52:42.796Z,7.00
2018-02-22T12:55:10.397Z,6.43
2018-02-22T12:57:38.032Z,6.93
2018-02-22T13:00:05.631Z,7.27
2018-02-22T13:02:33.219Z,7.90
2018-02-22T13:05:00.829Z,8.20
2018-02-22T13:07:28.430Z,8.40
2018-02-22T13:09:56.079Z,7.50
2018-02-22T13:12:23.680Z,7.77
2018-02-22T13:14:51.323Z,9.20
2018-02-22T13:17:18.908Z,8.90
2018-02-22T13:19:46.516Z,7.83
2018-02-22T13:22:14.148Z,7.10
2018-02-22T13:24:41.764Z,8.03
2018-02-22T13:27:09.386Z,7.83
2018-02-22T13:29:36.972Z,8.00
2018-02-22T13:32:04.571Z,8.10
2018-02-22T13:34:38.838Z,8.13
2018-02-22T13:40:11.501Z,8.30
2018-02-22T13:42:39.109Z,8.87
2018-02-22T13:45:18.737Z,7.60
2018-02-22T13:47:46.346Z,7.70
2018-02-22T13:50:25.941Z,7.90
2018-02-22T13:52:53.533Z,8.00
2018-02-22T13:55:21.143Z,6.80
2018-02-22T13:57:48.753Z,7.67
2018-02-22T14:00:28.121Z,6.57
2018-02-22T14:02:55.731Z,6.87
2018-02-22T14:05:23.330Z,8.07
2018-02-22T14:07:50.952Z,6.43
2018-02-22T14:10:18.548Z,7.27
2018-02-22T14:12:46.375Z,8.30
2018-02-22T14:15:13.976Z,7.77
2018-02-22T14:17:41.588Z,7.90
2018-02-22T14:20:09.196Z,7.23
2018-02-22T14:22:36.819Z,8.10
2018-02-22T14:25:04.429Z,8.50
2018-02-22T14:27:32.025Z,7.30
2018-02-22T14:29:59.672Z,7.43
2018-02-22T14:32:27.328Z,6.70
2018-02-22T14:34:54.949Z,8.50
2018-02-22T14:37:22.796Z,6.73
2018-02-22T14:39:51.357Z,8.07
2018-02-22T14:42:19.021Z,7.60
2018-02-22T14:44:46.628Z,6.50
2018-02-22T14:47:14.887Z,6.70
2018-02-22T14:49:42.761Z,6.73
2018-02-22T14:52:10.449Z,5.80
2018-02-22T14:54:38.153Z,6.72
2018-02-22T14:57:07.929Z,7.20
2018-02-22T14:59:35.901Z,8.15
2018-02-22T15:02:03.653Z,6.60
2018-02-22T15:04:31.432Z,7.07
2018-02-22T15:06:59.108Z,7.18
2018-02-22T15:09:26.825Z,8.20
2018-02-22T15:11:54.524Z,6.50
2018-02-22T15:14:22.190Z,9.53
2018-02-22T15:16:50.315Z,7.55
2018-02-22T15:19:17.923Z,6.50
2018-02-22T15:21:45.629Z,6.50
2018-02-22T15:24:13.310Z,5.85
2018-02-22T15:26:41.476Z,6.47
2018-02-22T15:29:09.180Z,5.30
2018-02-22T15:31:36.858Z,5.95
2018-02-22T15:34:04.549Z,5.57
2018-02-22T15:36:32.223Z,4.40
2018-02-22T15:38:59.919Z,5.80
2018-02-22T15:41:27.647Z,6.40
2018-02-22T15:43:55.613Z,5.85
2018-02-22T15:46:23.298Z,5.85
2018-02-22T15:48:51.007Z,6.32
2018-02-22T15:51:18.723Z,6.57
2018-02-22T15:53:46.871Z,5.70
2018-02-22T15:56:14.561Z,5.75
2018-02-22T15:58:42.248Z,6.07
2018-02-22T16:01:10.270Z,5.53
2018-02-22T16:03:37.947Z,5.57
2018-02-22T16:06:05.627Z,5.12
2018-02-22T16:08:33.864Z,6.15
2018-02-22T16:11:01.622Z,6.05
2018-02-22T16:13:29.636Z,5.10
2018-02-22T16:15:57.600Z,5.30
2018-02-22T16:18:25.323Z,5.00
2018-02-22T16:20:53.026Z,5.47
2018-02-22T16:23:20.709Z,5.65
2018-02-22T16:25:48.421Z,5.65
2018-02-22T16:28:16.101Z,5.97
2018-02-22T16:30:43.984Z,5.50
2018-02-22T16:33:11.688Z,5.97
2018-02-22T16:35:39.360Z,5.30
2018-02-22T16:38:07.080Z,5.47
2018-02-22T16:40:34.768Z,5.40
2018-02-22T16:43:02.710Z,6.72
2018-02-22T16:45:31.274Z,5.10
2018-02-22T16:47:59.344Z,4.28
2018-02-22T16:50:27.009Z,4.85
2018-02-22T16:52:54.708Z,4.93
2018-02-22T16:55:22.402Z,5.28
2018-02-22T16:57:50.092Z,5.40
2018-02-22T17:00:17.796Z,4.95
2018-02-22T17:02:45.468Z,4.68
2018-02-22T17:05:13.387Z,4.57
2018-02-22T17:07:41.077Z,5.50
2018-02-22T17:10:08.748Z,6.10
2018-02-22T17:12:37.926Z,4.75
2018-02-22T17:15:05.901Z,4.78
2018-02-22T17:17:45.422Z,5.80
2018-02-22T17:20:13.097Z,5.00
2018-02-22T17:22:41.172Z,5.07
2018-02-22T17:25:10.053Z,5.00
2018-02-22T17:27:43.443Z,4.82
2018-02-22T17:30:16.605Z,4.22
2018-02-22T17:32:44.336Z,4.25
2018-02-22T17:35:28.718Z,4.10
2018-02-22T17:38:02.236Z,5.22
2018-02-22T17:40:42.693Z,4.43
2018-02-22T17:43:10.907Z,4.22
2018-02-22T17:45:38.891Z,4.70
2018-02-22T17:48:06.552Z,4.57
2018-02-22T17:50:34.241Z,4.72
2018-02-22T17:53:01.921Z,4.80
2018-02-22T17:55:29.619Z,5.15
2018-02-22T17:57:57.295Z,5.70
2018-02-22T18:00:25.247Z,4.15
2018-02-22T18:02:52.910Z,4.93
2018-02-22T18:05:20.600Z,4.68
2018-02-22T18:07:48.289Z,4.57
2018-02-22T18:10:15.970Z,4.22
2018-02-22T18:12:43.700Z,4.43
2018-02-22T18:15:11.373Z,5.07
2018-02-22T18:17:39.379Z,3.95
2018-02-22T18:20:07.063Z,4.37
2018-02-22T18:22:34.760Z,4.90
2018-02-22T18:25:02.472Z,4.62
2018-02-22T18:27:30.153Z,4.82
2018-02-22T18:29:58.114Z,4.97
2018-02-22T18:32:25.780Z,4.68
2018-02-22T18:34:53.478Z,4.25
2018-02-22T18:37:26.780Z,5.03
2018-02-22T18:39:54.459Z,4.00
2018-02-22T18:42:22.157Z,4.22
2018-02-22T18:44:55.277Z,4.12
2018-02-22T18:47:22.960Z,4.07
2018-02-22T18:49:50.649Z,3.75
2018-02-22T18:52:18.357Z,4.90
2018-02-22T18:54:46.129Z,5.05
2018-02-22T18:57:13.969Z,4.30
2018-02-22T18:59:41.667Z,4.50
2018-02-22T19:02:09.328Z,4.82
2018-02-22T19:04:37.053Z,4.53
2018-02-22T19:07:04.737Z,3.85
2018-02-22T19:09:32.541Z,3.87
2018-02-22T19:12:00.215Z,4.47
2018-02-22T19:14:28.204Z,4.57
2018-02-22T19:16:55.874Z,3.92
2018-02-22T19:19:23.554Z,3.62
2018-02-22T19:21:51.264Z,4.43
2018-02-22T19:24:18.947Z,4.40
2018-02-22T19:26:46.652Z,3.87
2018-02-22T19:29:14.327Z,4.60
2018-02-22T19:31:42.163Z,4.35
2018-02-22T19:34:09.844Z,4.45
2018-02-22T19:36:37.554Z,5.30
2018-02-22T19:39:05.231Z,4.85
2018-02-22T19:41:32.888Z,4.47
2018-02-22T19:44:00.593Z,4.43
2018-02-22T19:46:28.262Z,4.50
2018-02-22T19:48:56.145Z,5.10
2018-02-22T19:51:23.826Z,4.47
2018-02-22T19:53:51.496Z,6.00
2018-02-22T19:56:19.181Z,4.70
2018-02-22T19:58:46.840Z,5.40
2018-02-22T20:01:14.528Z,5.00
2018-02-22T20:03:42.188Z,5.78
2018-02-22T20:06:09.908Z,5.30
2018-02-22T20:08:37.570Z,4.57
2018-02-22T20:11:05.226Z,4.60
2018-02-22T20:13:32.926Z,4.68
2018-02-22T20:16:00.635Z,4.65
2018-02-22T20:18:28.353Z,5.60
2018-02-22T20:20:56.020Z,4.75
2018-02-22T20:23:23.748Z,5.07
2018-02-22T20:25:51.416Z,6.12
2018-02-22T20:28:19.105Z,4.55
2018-02-22T20:30:46.787Z,5.05
2018-02-22T20:33:14.456Z,5.47
2018-02-22T20:35:42.151Z,5.00
2018-02-22T20:38:09.837Z,6.53
2018-02-22T20:40:37.770Z,5.12
2018-02-22T20:43:05.437Z,4.62
2018-02-22T20:45:33.184Z,4.65
2018-02-22T20:48:00.873Z,4.68
2018-02-22T20:50:28.555Z,5.53
2018-02-22T20:53:01.816Z,5.30
2018-02-22T20:55:29.824Z,4.65
2018-02-22T20:57:57.540Z,5.62
2018-02-22T21:00:25.268Z,4.82
2018-02-22T21:02:52.959Z,5.55
2018-02-22T21:05:20.688Z,6.43
2018-02-22T21:07:48.391Z,5.82
2018-02-22T21:10:16.122Z,5.90
2018-02-22T21:12:43.801Z,6.22
2018-02-22T21:15:11.612Z,5.05
2018-02-22T21:17:39.271Z,5.80
2018-02-22T21:20:06.940Z,5.80
2018-02-22T21:22:34.685Z,6.87
2018-02-22T21:25:02.338Z,7.50
2018-02-22T21:27:30.025Z,5.87
2018-02-22T21:29:57.864Z,6.03
2018-02-22T21:32:25.555Z,6.60
2018-02-22T21:34:53.233Z,5.60
2018-02-22T21:37:21.119Z,6.43
2018-02-22T21:39:48.808Z,5.75
2018-02-22T21:42:16.476Z,5.55
2018-02-22T21:44:44.173Z,5.50
2018-02-22T21:47:11.846Z,6.53
2018-02-22T21:49:39.560Z,6.60
2018-02-22T21:52:07.252Z,5.40
2018-02-22T21:54:35.097Z,6.25
2018-02-22T21:57:02.775Z,5.00
2018-02-22T21:59:30.492Z,6.40
2018-02-22T22:01:58.204Z,5.55
2018-02-22T22:04:25.877Z,5.37
2018-02-22T22:06:53.792Z,6.07
2018-02-22T22:09:21.466Z,6.07
2018-02-22T22:11:49.233Z,6.43
2018-02-22T22:14:16.956Z,5.85
2018-02-22T22:16:44.691Z,6.70
2018-02-22T22:19:12.419Z,5.47
2018-02-22T22:21:40.122Z,5.85
2018-02-22T22:24:07.957Z,6.10
2018-02-22T22:26:35.659Z,6.53
2018-02-22T22:29:03.433Z,5.85
2018-02-22T22:31:31.133Z,5.30
2018-02-22T22:33:58.861Z,6.40
2018-02-22T22:36:26.580Z,5.10
2018-02-22T22:38:54.294Z,6.20
2018-02-22T22:41:21.977Z,5.10
2018-02-22T22:43:49.653Z,6.30
2018-02-22T22:46:17.344Z,6.30
2018-02-22T22:48:45.116Z,6.53
2018-02-22T22:51:12.815Z,6.62
2018-02-22T22:53:40.502Z,6.55
2018-02-22T22:56:08.189Z,6.55
2018-02-22T22:58:35.904Z,6.93
2018-02-22T23:01:03.761Z,6.53
2018-02-22T23:03:31.434Z,6.45
2018-02-22T23:05:59.138Z,6.18
2018-02-22T23:08:26.867Z,5.85
2018-02-22T23:10:54.562Z,7.20
2018-02-22T23:13:22.232Z,5.60
2018-02-22T23:15:49.991Z,6.72
2018-02-22T23:18:17.668Z,6.95
2018-02-22T23:20:45.386Z,6.55
2018-02-22T23:23:13.123Z,5.87
2018-02-22T23:25:40.830Z,6.75
2018-02-22T23:28:08.504Z,6.62
2018-02-22T23:30:36.228Z,7.72
2018-02-22T23:33:03.929Z,6.97
2018-02-22T23:35:31.995Z,6.28
2018-02-22T23:37:59.662Z,6.22
2018-02-22T23:43:32.857Z,6.60
2018-02-22T23:46:00.572Z,7.43
2018-02-22T23:48:28.263Z,7.50
2018-02-22T23:50:55.940Z,6.47
2018-02-22T23:53:23.636Z,6.70
2018-02-22T23:55:51.311Z,5.95
2018-02-22T23:58:19.016Z,6.93
